createdAt,value
2019-01-16T00:00:57.068Z,99.90
2019-01-16T00:03:28.429Z,99.90
2019-01-16T00:05:59.688Z,99.90
2019-01-16T00:08:31.044Z,99.90
2019-01-16T00:11:11.237Z,99.90
2019-01-16T00:13:45.452Z,99.90
2019-01-16T00:16:22.681Z,99.90
2019-01-16T00:18:53.940Z,99.90
2019-01-16T00:21:28.183Z,99.90
2019-01-16T00:24:11.464Z,99.90
2019-01-16T00:26:45.628Z,99.90
2019-01-16T00:29:28.901Z,99.90
2019-01-16T00:32:05.990Z,99.90
2019-01-16T00:34:46.328Z,99.90
2019-01-16T00:37:32.664Z,99.90
2019-01-16T00:40:03.934Z,99.90
2019-01-16T00:42:35.229Z,99.90
2019-01-16T00:45:09.030Z,99.90
2019-01-16T00:47:40.320Z,99.90
2019-01-16T00:50:17.623Z,99.90
2019-01-16T00:52:57.985Z,99.90
2019-01-16T00:55:41.428Z,99.90
2019-01-16T00:58:15.599Z,99.90
2019-01-16T01:00:46.937Z,99.90
2019-01-16T01:03:34.463Z,99.90
2019-01-16T01:06:24.513Z,99.90
2019-01-16T01:08:58.729Z,99.90
2019-01-16T01:11:36.072Z,99.90
2019-01-16T01:14:07.444Z,99.90
2019-01-16T01:16:55.485Z,99.90
2019-01-16T01:19:42.220Z,99.90
2019-01-16T01:22:13.559Z,99.90
2019-01-16T01:24:48.139Z,99.90
2019-01-16T01:27:19.481Z,99.90
2019-01-16T01:29:53.505Z,99.90
2019-01-16T01:32:33.971Z,99.90
2019-01-16T01:35:05.408Z,99.90
2019-01-16T01:37:45.773Z,99.90
2019-01-16T01:40:33.184Z,99.90
2019-01-16T01:43:19.870Z,99.90
2019-01-16T01:46:07.520Z,99.90
2019-01-16T01:48:54.825Z,99.90
2019-01-16T01:51:34.925Z,99.90
2019-01-16T01:54:06.573Z,99.90
2019-01-16T01:56:46.861Z,99.90
2019-01-16T01:59:23.878Z,99.90
2019-01-16T02:01:58.096Z,99.90
2019-01-16T02:04:45.927Z,99.90
2019-01-16T02:07:26.072Z,99.90
2019-01-16T02:09:59.938Z,99.90
2019-01-16T02:12:34.201Z,99.90
2019-01-16T02:15:22.470Z,99.90
2019-01-16T02:17:56.529Z,99.90
2019-01-16T02:20:36.972Z,99.90
2019-01-16T02:23:17.238Z,99.90
2019-01-16T02:25:51.587Z,99.90
2019-01-16T02:28:28.874Z,99.90
2019-01-16T02:31:02.886Z,99.90
2019-01-16T02:33:50.426Z,99.90
2019-01-16T02:36:21.727Z,99.90
2019-01-16T02:39:02.160Z,99.90
2019-01-16T02:41:33.431Z,99.90
2019-01-16T02:44:07.397Z,99.90
2019-01-16T02:46:47.733Z,99.90
2019-01-16T02:49:31.274Z,99.90
2019-01-16T02:52:02.622Z,99.90
2019-01-16T02:54:33.920Z,99.90
2019-01-16T02:57:14.243Z,99.90
2019-01-16T02:59:54.309Z,99.90
2019-01-16T03:02:34.647Z,99.90
2019-01-16T03:05:08.249Z,99.90
2019-01-16T03:07:39.537Z,99.90
2019-01-16T03:10:20.317Z,99.90
2019-01-16T03:13:09.963Z,99.90
2019-01-16T03:15:59.394Z,99.90
2019-01-16T03:18:36.618Z,99.90
2019-01-16T03:21:24.036Z,99.90
2019-01-16T03:24:01.269Z,99.90
2019-01-16T03:26:32.570Z,99.90
2019-01-16T03:29:03.856Z,99.90
2019-01-16T03:31:53.295Z,99.90
2019-01-16T03:34:24.558Z,99.90
2019-01-16T03:36:55.857Z,99.90
2019-01-16T03:39:29.890Z,99.90
2019-01-16T03:42:18.184Z,99.90
2019-01-16T03:44:49.453Z,99.90
2019-01-16T03:47:20.737Z,99.90
2019-01-16T03:50:08.350Z,99.90
2019-01-16T03:52:42.421Z,99.90
2019-01-16T03:55:22.786Z,99.90
2019-01-16T03:58:12.254Z,99.90
2019-01-16T04:00:46.241Z,99.90
2019-01-16T04:03:33.913Z,99.90
2019-01-16T04:06:05.286Z,99.90
2019-01-16T04:08:48.535Z,99.90
2019-01-16T04:11:19.835Z,99.90
2019-01-16T04:14:07.454Z,99.90
2019-01-16T04:16:41.306Z,99.90
2019-01-16T04:19:21.651Z,99.90
2019-01-16T04:21:48.289Z,99.90
2019-01-16T04:24:22.253Z,99.90
2019-01-16T04:26:59.284Z,99.90
2019-01-16T04:29:46.513Z,99.90
2019-01-16T04:32:17.810Z,99.90
2019-01-16T04:34:57.980Z,99.90
2019-01-16T04:37:35.328Z,99.90
2019-01-16T04:40:14.275Z,99.90
2019-01-16T04:42:45.569Z,99.90
2019-01-16T04:45:16.892Z,99.90
2019-01-16T04:47:50.598Z,99.90
2019-01-16T04:50:21.879Z,99.90
2019-01-16T04:53:05.075Z,99.90
2019-01-16T04:55:51.478Z,99.90
2019-01-16T04:58:37.572Z,99.90
2019-01-16T05:01:17.875Z,99.90
2019-01-16T05:03:52.186Z,99.90
2019-01-16T05:06:23.466Z,99.90
2019-01-16T05:08:57.222Z,99.90
2019-01-16T05:11:43.682Z,99.90
2019-01-16T05:14:17.845Z,99.90
2019-01-16T05:16:52.238Z,99.90
2019-01-16T05:19:39.119Z,99.90
2019-01-16T05:22:10.493Z,99.90
2019-01-16T05:24:44.485Z,99.90
2019-01-16T05:27:24.524Z,99.90
2019-01-16T05:30:01.894Z,99.90
2019-01-16T05:32:33.195Z,99.90
2019-01-16T05:35:20.634Z,99.90
2019-01-16T05:37:57.676Z,99.90
2019-01-16T05:40:45.521Z,99.90
2019-01-16T05:43:22.541Z,99.90
2019-01-16T05:46:10.326Z,99.90
2019-01-16T05:48:44.343Z,99.90
2019-01-16T05:51:18.386Z,99.90
2019-01-16T05:54:04.905Z,99.90
2019-01-16T05:56:38.645Z,99.90
2019-01-16T05:59:09.958Z,99.90
2019-01-16T06:01:59.553Z,99.90
2019-01-16T06:04:36.939Z,99.90
2019-01-16T06:07:20.273Z,99.90
2019-01-16T06:09:57.413Z,99.90
2019-01-16T06:12:47.009Z,99.90
2019-01-16T06:15:18.306Z,99.90
2019-01-16T06:17:52.193Z,99.90
2019-01-16T06:20:41.616Z,99.90
2019-01-16T06:23:12.893Z,99.90
2019-01-16T06:25:55.986Z,99.90
2019-01-16T06:28:43.593Z,99.90
2019-01-16T06:31:14.887Z,99.90
2019-01-16T06:33:49.734Z,99.90
2019-01-16T06:36:30.029Z,99.90
2019-01-16T06:39:01.321Z,99.90
2019-01-16T06:41:32.590Z,99.90
2019-01-16T06:44:06.939Z,99.90
2019-01-16T06:46:56.461Z,99.90
2019-01-16T06:49:42.931Z,99.90
2019-01-16T06:52:14.206Z,99.90
2019-01-16T06:54:51.333Z,99.90
2019-01-16T06:57:34.710Z,99.90
2019-01-16T07:00:24.996Z,99.90
2019-01-16T07:03:13.693Z,99.90
2019-01-16T07:05:54.164Z,99.90
2019-01-16T07:08:41.893Z,99.90
2019-01-16T07:11:26.045Z,99.90
2019-01-16T07:14:15.661Z,99.90
2019-01-16T07:16:52.629Z,99.90
2019-01-16T07:19:40.263Z,99.90
2019-01-16T07:22:23.606Z,99.90
2019-01-16T07:25:11.326Z,99.90
2019-01-16T07:27:57.342Z,99.90
2019-01-16T07:30:31.345Z,99.90
2019-01-16T07:33:02.622Z,99.90
2019-01-16T07:35:33.944Z,99.90
2019-01-16T07:38:06.600Z,99.90
2019-01-16T07:40:43.468Z,99.90
2019-01-16T07:43:20.714Z,99.90
2019-01-16T07:46:01.049Z,99.90
2019-01-16T07:48:47.484Z,99.90
2019-01-16T07:51:33.927Z,99.90
2019-01-16T07:54:11.594Z,99.90
2019-01-16T07:56:42.886Z,99.90
2019-01-16T07:59:21.808Z,99.90
2019-01-16T08:01:52.717Z,99.90
2019-01-16T08:04:38.746Z,99.90
2019-01-16T08:07:25.150Z,99.90
2019-01-16T08:09:59.413Z,99.90
2019-01-16T08:12:49.001Z,99.90
2019-01-16T08:15:32.572Z,99.90
2019-01-16T08:18:03.865Z,99.90
2019-01-16T08:20:40.965Z,99.90
2019-01-16T08:23:17.805Z,99.90
2019-01-16T08:25:52.057Z,99.90
2019-01-16T08:28:23.351Z,99.90
2019-01-16T08:30:54.613Z,99.90
2019-01-16T08:33:25.986Z,99.90
2019-01-16T08:36:15.341Z,99.90
2019-01-16T08:39:01.454Z,99.90
2019-01-16T08:41:35.473Z,99.90
2019-01-16T08:44:13.622Z,99.90
2019-01-16T08:46:49.109Z,99.90
2019-01-16T08:49:29.313Z,99.90
2019-01-16T08:52:00.581Z,99.90
2019-01-16T08:54:49.778Z,99.90
2019-01-16T08:57:33.223Z,99.90
2019-01-16T09:00:13.558Z,99.90
2019-01-16T09:02:44.961Z,99.90
2019-01-16T09:05:23.135Z,99.90
2019-01-16T09:08:03.297Z,99.90
2019-01-16T09:10:34.696Z,99.90
2019-01-16T09:13:17.938Z,99.90
2019-01-16T09:16:05.357Z,99.90
2019-01-16T09:18:48.991Z,99.90
2019-01-16T09:21:26.252Z,99.90
2019-01-16T09:24:00.502Z,99.90
2019-01-16T09:26:37.963Z,99.90
2019-01-16T09:29:15.412Z,99.90
2019-01-16T09:31:55.837Z,99.90
2019-01-16T09:34:27.162Z,99.90
2019-01-16T09:37:07.629Z,99.90
2019-01-16T09:39:47.733Z,99.90
2019-01-16T09:42:31.014Z,99.90
2019-01-16T09:45:20.582Z,99.90
2019-01-16T09:47:54.835Z,99.90
2019-01-16T09:50:47.778Z,99.90
2019-01-16T09:53:15.402Z,99.90
2019-01-16T09:56:02.570Z,99.90
2019-01-16T09:58:33.841Z,99.90
2019-01-16T10:01:07.757Z,99.90
2019-01-16T10:03:41.453Z,99.90
2019-01-16T10:06:12.753Z,99.90
2019-01-16T10:08:49.745Z,99.90
2019-01-16T10:11:37.591Z,99.90
2019-01-16T10:14:08.886Z,99.90
2019-01-16T10:16:40.155Z,99.90
2019-01-16T10:19:14.179Z,99.90
2019-01-16T10:21:51.536Z,99.90
2019-01-16T10:24:31.705Z,99.90
2019-01-16T10:27:08.454Z,99.90
2019-01-16T10:29:42.435Z,99.90
2019-01-16T10:32:13.703Z,99.90
2019-01-16T10:34:48.136Z,99.90
2019-01-16T10:37:28.425Z,99.90
2019-01-16T10:40:11.330Z,99.90
2019-01-16T10:42:42.674Z,99.90
2019-01-16T10:45:16.610Z,99.90
2019-01-16T10:47:47.878Z,99.90
2019-01-16T10:50:25.189Z,99.90
2019-01-16T10:52:59.257Z,99.90
2019-01-16T10:55:46.145Z,99.90
2019-01-16T10:58:17.426Z,99.90
2019-01-16T11:00:51.849Z,99.90
2019-01-16T11:03:25.946Z,99.90
2019-01-16T11:05:59.981Z,99.90
2019-01-16T11:08:47.586Z,99.90
2019-01-16T11:11:21.814Z,99.90
2019-01-16T11:13:55.505Z,99.90
2019-01-16T11:16:42.913Z,99.90
2019-01-16T11:19:20.162Z,99.90
2019-01-16T11:22:07.776Z,99.90
2019-01-16T11:24:48.778Z,99.90
2019-01-16T11:27:23.237Z,99.90
2019-01-16T11:30:10.944Z,99.90
2019-01-16T11:32:45.061Z,99.90
2019-01-16T11:35:16.398Z,99.90
2019-01-16T11:37:50.889Z,99.90
2019-01-16T11:40:25.216Z,99.90
2019-01-16T11:42:56.515Z,99.90
2019-01-16T11:45:30.686Z,99.90
2019-01-16T11:48:12.582Z,99.90
2019-01-16T11:50:49.469Z,99.90
2019-01-16T11:53:39.132Z,99.90
2019-01-16T11:56:22.563Z,99.90
2019-01-16T11:59:09.848Z,99.90
2019-01-16T12:01:58.022Z,99.90
2019-01-16T12:04:29.471Z,99.90
2019-01-16T12:07:04.419Z,99.90
2019-01-16T12:09:47.600Z,99.90
2019-01-16T12:12:35.337Z,99.90
2019-01-16T12:15:18.994Z,99.90
2019-01-16T12:17:56.894Z,99.90
2019-01-16T12:20:44.139Z,99.90
2019-01-16T12:23:20.978Z,99.90
2019-01-16T12:26:08.321Z,99.90
2019-01-16T12:28:40.556Z,99.90
2019-01-16T12:31:11.965Z,99.90
2019-01-16T12:33:52.624Z,99.90
2019-01-16T12:36:27.153Z,99.90
2019-01-16T12:39:01.377Z,99.90
2019-01-16T12:41:32.781Z,99.90
2019-01-16T12:44:22.312Z,96.80
2019-01-16T12:46:53.760Z,89.70
2019-01-16T12:49:40.299Z,76.10
2019-01-16T12:52:11.709Z,69.20
2019-01-16T12:54:59.614Z,68.70
2019-01-16T12:57:36.822Z,68.10
2019-01-16T13:00:11.287Z,68.90
2019-01-16T13:02:45.377Z,64.90
2019-01-16T13:05:17.597Z,65.00
2019-01-16T13:07:49.527Z,68.20
2019-01-16T13:10:26.814Z,80.60
2019-01-16T13:13:08.846Z,91.60
2019-01-16T13:15:58.691Z,97.60
2019-01-16T13:18:32.907Z,99.90
2019-01-16T13:21:13.675Z,99.90
2019-01-16T13:23:45.021Z,99.90
2019-01-16T13:26:22.589Z,99.90
2019-01-16T13:28:56.419Z,99.90
2019-01-16T13:31:45.281Z,99.90
2019-01-16T13:34:16.986Z,99.90
2019-01-16T13:36:51.064Z,99.90
2019-01-16T13:39:22.428Z,99.90
2019-01-16T13:41:59.473Z,99.90
2019-01-16T13:44:30.821Z,99.90
2019-01-16T13:47:05.124Z,99.90
2019-01-16T13:49:52.754Z,99.90
2019-01-16T13:52:42.338Z,99.90
2019-01-16T13:55:17.072Z,99.90
2019-01-16T13:57:54.209Z,99.90
2019-01-16T14:00:34.624Z,99.90
2019-01-16T14:03:14.777Z,99.90
2019-01-16T14:05:54.923Z,99.90
2019-01-16T14:08:44.153Z,99.90
2019-01-16T14:11:16.153Z,99.90
2019-01-16T14:14:03.884Z,99.90
2019-01-16T14:16:54.194Z,99.90
2019-01-16T14:19:33.407Z,99.90
2019-01-16T14:22:19.498Z,99.90
2019-01-16T14:24:54.305Z,99.90
2019-01-16T14:30:37.671Z,99.90
2019-01-16T14:33:13.341Z,99.90
2019-01-16T14:35:46.475Z,99.90
2019-01-16T14:38:29.387Z,99.90
2019-01-16T14:41:09.071Z,99.90
2019-01-16T14:44:01.634Z,99.90
2019-01-16T14:46:42.110Z,99.90
2019-01-16T14:49:23.659Z,99.90
2019-01-16T14:52:06.374Z,99.90
2019-01-16T14:54:44.887Z,99.90
2019-01-16T14:57:24.422Z,99.90
2019-01-16T15:00:00.792Z,99.90
2019-01-16T15:02:38.587Z,99.90
2019-01-16T15:05:14.570Z,99.90
2019-01-16T15:08:03.094Z,99.90
2019-01-16T15:10:54.410Z,99.90
2019-01-16T15:13:45.716Z,99.90
2019-01-16T15:16:23.724Z,99.90
2019-01-16T15:19:00.091Z,99.90
2019-01-16T15:21:48.946Z,99.90
2019-01-16T15:24:23.491Z,99.90
2019-01-16T15:26:58.500Z,99.90
2019-01-16T15:29:43.774Z,99.90
2019-01-16T15:32:35.088Z,99.90
2019-01-16T15:37:58.577Z,99.90
2019-01-16T15:40:32.990Z,99.90
2019-01-16T15:43:22.668Z,99.90
2019-01-16T15:46:07.330Z,99.90
2019-01-16T15:48:56.388Z,99.90
2019-01-16T15:54:57.652Z,99.90
2019-01-16T15:57:35.249Z,99.90
2019-01-16T16:00:26.653Z,99.90
2019-01-16T16:02:59.850Z,99.90
2019-01-16T16:05:35.049Z,99.90
2019-01-16T16:08:24.356Z,99.90
2019-01-16T16:10:57.828Z,99.90
2019-01-16T16:13:30.487Z,99.90
2019-01-16T16:16:11.710Z,99.90
2019-01-16T16:18:46.844Z,99.90
2019-01-16T16:21:29.969Z,99.90
2019-01-16T16:24:02.406Z,99.90
2019-01-16T16:26:37.319Z,99.90
2019-01-16T16:29:21.515Z,99.90
2019-01-16T16:32:04.925Z,99.90
2019-01-16T16:37:31.705Z,99.90
2019-01-16T16:40:11.141Z,99.90
2019-01-16T16:42:52.728Z,99.90
2019-01-16T16:45:24.943Z,99.90
2019-01-16T16:48:14.467Z,99.90
2019-01-16T16:50:54.210Z,99.90
2019-01-16T16:53:29.148Z,99.90
2019-01-16T16:56:22.423Z,99.90
2019-01-16T16:59:01.933Z,99.90
2019-01-16T17:01:51.081Z,99.90
2019-01-16T17:04:48.177Z,99.90
2019-01-16T17:07:30.458Z,99.90
2019-01-16T17:10:06.165Z,99.90
2019-01-16T17:12:51.582Z,99.90
2019-01-16T17:15:35.327Z,99.90
2019-01-16T17:21:38.211Z,99.90
2019-01-16T17:24:10.927Z,99.90
2019-01-16T17:27:03.372Z,99.90
2019-01-16T17:29:45.137Z,99.90
2019-01-16T17:32:38.394Z,99.90
2019-01-16T17:35:13.632Z,99.90
2019-01-16T17:41:21.762Z,99.90
2019-01-16T17:44:12.672Z,99.90
2019-01-16T17:47:05.413Z,99.90
2019-01-16T17:49:41.895Z,99.90
2019-01-16T17:52:27.582Z,99.90
2019-01-16T17:54:59.635Z,99.90
2019-01-16T17:57:38.348Z,99.90
2019-01-16T18:03:23.184Z,99.90
2019-01-16T18:06:03.597Z,99.90
2019-01-16T18:08:42.216Z,99.90
2019-01-16T18:11:18.690Z,99.90
2019-01-16T18:13:51.195Z,99.90
2019-01-16T18:16:39.708Z,99.90
2019-01-16T18:19:32.436Z,99.90
2019-01-16T18:25:08.417Z,99.90
2019-01-16T18:27:58.400Z,99.90
2019-01-16T18:30:51.814Z,99.90
2019-01-16T18:33:40.523Z,99.90
2019-01-16T18:39:17.547Z,99.90
2019-01-16T18:42:08.305Z,99.90
2019-01-16T18:44:44.768Z,99.90
2019-01-16T18:47:25.378Z,99.90
2019-01-16T18:50:03.347Z,99.90
2019-01-16T18:52:38.932Z,99.90
2019-01-16T18:55:20.787Z,99.90
2019-01-16T18:57:57.512Z,99.90
2019-01-16T19:00:45.691Z,99.90
2019-01-16T19:03:33.319Z,99.90
2019-01-16T19:06:16.682Z,99.90
2019-01-16T19:08:56.966Z,99.90
2019-01-16T19:11:37.116Z,99.90
2019-01-16T19:14:24.624Z,99.90
2019-01-16T19:16:55.894Z,99.90
2019-01-16T19:19:36.208Z,99.90
2019-01-16T19:22:24.033Z,99.90
2019-01-16T19:24:55.334Z,99.90
2019-01-16T19:27:44.700Z,99.90
2019-01-16T19:30:33.281Z,99.90
2019-01-16T19:33:04.642Z,99.90
2019-01-16T19:35:48.233Z,99.90
2019-01-16T19:38:34.325Z,99.90
2019-01-16T19:41:08.598Z,99.90
2019-01-16T19:43:49.197Z,99.90
2019-01-16T19:46:38.622Z,99.90
2019-01-16T19:49:22.217Z,99.90
2019-01-16T19:51:56.169Z,99.90
2019-01-16T19:54:44.139Z,99.90
2019-01-16T19:57:15.510Z,99.90
2019-01-16T19:59:49.567Z,99.90
2019-01-16T20:02:32.887Z,99.90
2019-01-16T20:05:10.022Z,99.90
2019-01-16T20:07:41.322Z,99.90
2019-01-16T20:10:26.320Z,99.90
2019-01-16T20:12:57.616Z,99.90
2019-01-16T20:15:31.730Z,99.90
2019-01-16T20:18:03.025Z,99.90
2019-01-16T20:20:52.594Z,99.90
2019-01-16T20:23:36.110Z,99.90
2019-01-16T20:26:07.568Z,99.90
2019-01-16T20:28:41.814Z,99.90
2019-01-16T20:31:19.153Z,99.90
2019-01-16T20:33:56.429Z,99.90
2019-01-16T20:36:30.410Z,99.90
2019-01-16T20:39:04.679Z,99.90
2019-01-16T20:41:42.018Z,99.90
2019-01-16T20:44:29.545Z,99.90
2019-01-16T20:47:06.370Z,99.90
2019-01-16T20:49:43.514Z,99.90
2019-01-16T20:52:17.752Z,99.90
2019-01-16T20:54:55.837Z,99.90
2019-01-16T20:57:43.421Z,99.90
2019-01-16T21:00:23.450Z,99.90
2019-01-16T21:02:57.508Z,99.90
2019-01-16T21:05:31.757Z,99.90
2019-01-16T21:08:03.125Z,99.90
2019-01-16T21:10:52.464Z,99.90
2019-01-16T21:13:40.160Z,99.90
2019-01-16T21:16:11.434Z,99.90
2019-01-16T21:19:00.898Z,99.90
2019-01-16T21:21:41.186Z,99.90
2019-01-16T21:24:15.341Z,99.90
2019-01-16T21:26:46.685Z,99.90
2019-01-16T21:29:36.141Z,99.90
2019-01-16T21:32:16.281Z,99.90
2019-01-16T21:34:47.580Z,99.90
2019-01-16T21:37:27.488Z,99.90
2019-01-16T21:40:13.835Z,99.90
2019-01-16T21:43:03.074Z,99.90
2019-01-16T21:45:34.494Z,99.90
2019-01-16T21:48:17.809Z,99.90
2019-01-16T21:51:05.340Z,99.90
2019-01-16T21:53:52.014Z,99.90
2019-01-16T21:56:29.278Z,99.90
2019-01-16T21:59:00.548Z,99.90
2019-01-16T22:01:31.876Z,99.90
2019-01-16T22:04:09.208Z,99.90
2019-01-16T22:06:40.486Z,99.90
2019-01-16T22:09:28.165Z,99.90
2019-01-16T22:12:17.565Z,99.90
2019-01-16T22:15:05.301Z,99.90
2019-01-16T22:17:45.901Z,99.90
2019-01-16T22:20:25.733Z,99.90
2019-01-16T22:23:09.036Z,99.90
2019-01-16T22:25:52.244Z,99.90
2019-01-16T22:28:32.653Z,99.90
2019-01-16T22:31:12.598Z,99.90
2019-01-16T22:33:52.953Z,99.90
2019-01-16T22:36:26.985Z,99.90
2019-01-16T22:39:00.822Z,99.90
2019-01-16T22:41:35.298Z,99.90
2019-01-16T22:44:12.695Z,99.90
2019-01-16T22:46:59.403Z,99.90
2019-01-16T22:49:30.769Z,99.90
2019-01-16T22:52:10.865Z,99.90
2019-01-16T22:54:42.159Z,99.90
2019-01-16T22:57:13.562Z,99.90
2019-01-16T23:00:03.030Z,99.90
2019-01-16T23:02:34.374Z,99.90
2019-01-16T23:05:06.712Z,99.90
2019-01-16T23:07:37.985Z,99.90
2019-01-16T23:10:19.478Z,99.90
2019-01-16T23:13:05.796Z,99.90
2019-01-16T23:15:37.090Z,99.90
2019-01-16T23:18:24.965Z,99.90
2019-01-16T23:21:08.401Z,99.90
2019-01-16T23:23:39.658Z,99.90
2019-01-16T23:26:22.753Z,99.90
2019-01-16T23:29:02.789Z,99.90
2019-01-16T23:31:40.239Z,99.90
2019-01-16T23:34:26.614Z,99.90
2019-01-16T23:37:03.817Z,99.90
2019-01-16T23:39:41.077Z,99.90
2019-01-16T23:42:12.350Z,99.90
2019-01-16T23:45:00.109Z,99.90
2019-01-16T23:47:43.500Z,99.90
2019-01-16T23:50:14.880Z,99.90
2019-01-16T23:52:46.153Z,99.90
2019-01-16T23:55:26.261Z,99.90
2019-01-16T23:58:06.373Z,99.90
